createdAt,value
2023-01-19T00:00:08.751Z,934.43
2023-01-19T00:00:17.849Z,934.44
2023-01-19T00:00:27.913Z,934.45
2023-01-19T00:00:37.888Z,934.43
2023-01-19T00:00:47.831Z,934.46
2023-01-19T00:00:57.831Z,934.43
2023-01-19T00:01:07.831Z,934.46
2023-01-19T00:01:17.834Z,934.44
2023-01-19T00:01:27.834Z,934.43
2023-01-19T00:01:37.847Z,934.43
2023-01-19T00:01:47.838Z,934.45
2023-01-19T00:01:57.837Z,934.45
2023-01-19T00:02:07.836Z,934.45
2023-01-19T00:02:17.839Z,934.46
2023-01-19T00:02:27.855Z,934.45
2023-01-19T00:02:37.872Z,934.45
2023-01-19T00:02:47.890Z,934.45
2023-01-19T00:02:57.893Z,934.43
2023-01-19T00:03:07.844Z,934.43
2023-01-19T00:03:17.956Z,934.42
2023-01-19T00:03:27.847Z,934.44
2023-01-19T00:03:37.907Z,934.43
2023-01-19T00:03:47.852Z,934.44
2023-01-19T00:03:57.846Z,934.44
2023-01-19T00:04:07.845Z,934.44
2023-01-19T00:04:17.855Z,934.44
2023-01-19T00:04:27.848Z,934.45
2023-01-19T00:04:37.855Z,934.44
2023-01-19T00:04:47.856Z,934.44
2023-01-19T00:04:57.851Z,934.45
2023-01-19T00:05:07.854Z,934.44
2023-01-19T00:05:17.856Z,934.44
2023-01-19T00:05:27.856Z,934.44
2023-01-19T00:05:37.861Z,934.43
2023-01-19T00:05:47.894Z,934.44
2023-01-19T00:05:57.882Z,934.45
2023-01-19T00:06:07.920Z,934.43
2023-01-19T00:06:17.980Z,934.45
2023-01-19T00:06:27.973Z,934.44
2023-01-19T00:06:37.876Z,934.44
2023-01-19T00:06:47.870Z,934.45
2023-01-19T00:06:57.862Z,934.45
2023-01-19T00:07:07.867Z,934.46
2023-01-19T00:07:17.860Z,934.43
2023-01-19T00:07:27.863Z,934.42
2023-01-19T00:07:37.862Z,934.42
2023-01-19T00:07:47.881Z,934.43
2023-01-19T00:07:58.566Z,934.44
2023-01-19T00:08:07.864Z,934.39
2023-01-19T00:08:17.892Z,934.44
2023-01-19T00:08:27.869Z,934.44
2023-01-19T00:08:37.866Z,934.41
2023-01-19T00:08:47.867Z,934.43
2023-01-19T00:08:57.879Z,934.40
2023-01-19T00:09:07.874Z,934.39
2023-01-19T00:09:17.868Z,934.41
2023-01-19T00:09:27.875Z,934.42
2023-01-19T00:09:37.875Z,934.42
2023-01-19T00:09:47.875Z,934.42
2023-01-19T00:09:57.891Z,934.41
2023-01-19T00:10:07.882Z,934.42
2023-01-19T00:10:17.892Z,934.41
2023-01-19T00:10:27.873Z,934.41
2023-01-19T00:10:37.874Z,934.36
2023-01-19T00:10:47.903Z,934.43
2023-01-19T00:10:57.879Z,934.43
2023-01-19T00:11:07.908Z,934.43
2023-01-19T00:11:17.883Z,934.44
2023-01-19T00:11:27.885Z,934.44
2023-01-19T00:11:37.900Z,934.43
2023-01-19T00:11:47.888Z,934.43
2023-01-19T00:11:57.892Z,934.43
2023-01-19T00:12:07.893Z,934.44
2023-01-19T00:12:17.886Z,934.44
2023-01-19T00:12:27.885Z,934.43
2023-01-19T00:12:37.887Z,934.43
2023-01-19T00:12:47.910Z,934.43
2023-01-19T00:12:58.523Z,934.43
2023-01-19T00:13:07.891Z,934.44
2023-01-19T00:13:17.907Z,934.42
2023-01-19T00:13:27.899Z,934.42
2023-01-19T00:13:37.893Z,934.42
2023-01-19T00:13:47.905Z,934.41
2023-01-19T00:13:57.904Z,934.41
2023-01-19T00:14:07.929Z,934.42
2023-01-19T00:14:17.898Z,934.41
2023-01-19T00:14:27.895Z,934.41
2023-01-19T00:14:37.899Z,934.40
2023-01-19T00:14:47.912Z,934.41
2023-01-19T00:14:57.911Z,934.41
2023-01-19T00:15:07.911Z,934.42
2023-01-19T00:15:17.901Z,934.41
2023-01-19T00:15:27.910Z,934.40
2023-01-19T00:15:37.903Z,934.41
2023-01-19T00:15:47.899Z,934.41
2023-01-19T00:15:57.932Z,934.42
2023-01-19T00:16:07.930Z,934.41
2023-01-19T00:16:17.921Z,934.41
2023-01-19T00:16:27.938Z,934.41
2023-01-19T00:16:37.907Z,934.40
2023-01-19T00:16:47.912Z,934.37
2023-01-19T00:16:57.916Z,934.38
2023-01-19T00:17:07.915Z,934.38
2023-01-19T00:17:17.915Z,934.39
2023-01-19T00:17:27.913Z,934.38
2023-01-19T00:17:37.911Z,934.37
2023-01-19T00:17:47.924Z,934.38
2023-01-19T00:17:57.922Z,934.36
2023-01-19T00:18:09.809Z,934.37
2023-01-19T00:18:17.924Z,934.38
2023-01-19T00:18:27.917Z,934.37
2023-01-19T00:18:37.918Z,934.36
2023-01-19T00:18:47.929Z,934.38
2023-01-19T00:18:57.940Z,934.38
2023-01-19T00:19:07.922Z,934.36
2023-01-19T00:19:17.924Z,934.38
2023-01-19T00:19:27.924Z,934.38
2023-01-19T00:19:37.933Z,934.39
2023-01-19T00:19:47.926Z,934.37
2023-01-19T00:19:57.950Z,934.36
2023-01-19T00:20:07.949Z,934.37
2023-01-19T00:20:17.930Z,934.36
2023-01-19T00:20:27.930Z,934.35
2023-01-19T00:20:37.943Z,934.34
2023-01-19T00:20:47.928Z,934.35
2023-01-19T00:20:57.932Z,934.33
2023-01-19T00:21:07.938Z,934.33
2023-01-19T00:21:17.933Z,934.33
2023-01-19T00:21:27.941Z,934.33
2023-01-19T00:21:37.944Z,934.34
2023-01-19T00:21:47.936Z,934.31
2023-01-19T00:21:57.938Z,934.34
2023-01-19T00:22:07.942Z,934.35
2023-01-19T00:22:17.936Z,934.34
2023-01-19T00:22:27.937Z,934.36
2023-01-19T00:22:37.944Z,934.35
2023-01-19T00:22:47.965Z,934.36
2023-01-19T00:22:58.354Z,934.36
2023-01-19T00:23:08.035Z,934.36
2023-01-19T00:23:17.939Z,934.36
2023-01-19T00:23:27.969Z,934.36
2023-01-19T00:23:37.944Z,934.36
2023-01-19T00:23:47.955Z,934.37
2023-01-19T00:23:57.957Z,934.37
2023-01-19T00:24:07.943Z,934.36
2023-01-19T00:24:17.946Z,934.36
2023-01-19T00:24:27.956Z,934.36
2023-01-19T00:24:37.949Z,934.37
2023-01-19T00:24:47.956Z,934.37
2023-01-19T00:24:57.950Z,934.36
2023-01-19T00:25:07.951Z,934.37
2023-01-19T00:25:17.951Z,934.37
2023-01-19T00:25:27.959Z,934.37
2023-01-19T00:25:37.951Z,934.36
2023-01-19T00:25:47.963Z,934.37
2023-01-19T00:25:57.959Z,934.37
2023-01-19T00:26:07.954Z,934.38
2023-01-19T00:26:17.955Z,934.39
2023-01-19T00:26:27.955Z,934.39
2023-01-19T00:26:37.955Z,934.39
2023-01-19T00:26:47.958Z,934.37
2023-01-19T00:26:57.960Z,934.39
2023-01-19T00:27:07.956Z,934.37
2023-01-19T00:27:17.966Z,934.38
2023-01-19T00:27:27.957Z,934.38
2023-01-19T00:27:37.960Z,934.38
2023-01-19T00:27:48.002Z,934.40
2023-01-19T00:28:00.406Z,934.39
2023-01-19T00:28:07.961Z,934.39
2023-01-19T00:28:17.960Z,934.38
2023-01-19T00:28:27.966Z,934.39
2023-01-19T00:28:37.963Z,934.39
2023-01-19T00:28:47.976Z,934.37
2023-01-19T00:28:57.962Z,934.37
2023-01-19T00:29:07.965Z,934.39
2023-01-19T00:29:17.969Z,934.38
2023-01-19T00:29:27.967Z,934.36
2023-01-19T00:29:37.971Z,934.38
2023-01-19T00:29:47.978Z,934.36
2023-01-19T00:29:57.969Z,934.34
2023-01-19T00:30:07.971Z,934.35
2023-01-19T00:30:17.972Z,934.36
2023-01-19T00:30:27.977Z,934.35
2023-01-19T00:30:37.970Z,934.36
2023-01-19T00:30:47.982Z,934.37
2023-01-19T00:30:57.975Z,934.38
2023-01-19T00:31:08.019Z,934.36
2023-01-19T00:31:18.018Z,934.39
2023-01-19T00:31:28.011Z,934.39
2023-01-19T00:31:38.081Z,934.41
2023-01-19T00:31:48.016Z,934.39
2023-01-19T00:31:58.736Z,934.38
2023-01-19T00:32:07.983Z,934.37
2023-01-19T00:32:17.978Z,934.36
2023-01-19T00:32:27.980Z,934.38
2023-01-19T00:32:37.980Z,934.37
2023-01-19T00:32:47.987Z,934.37
2023-01-19T00:32:58.596Z,934.37
2023-01-19T00:33:07.983Z,934.37
2023-01-19T00:33:17.982Z,934.36
2023-01-19T00:33:27.986Z,934.37
2023-01-19T00:33:37.983Z,934.38
2023-01-19T00:33:47.990Z,934.38
2023-01-19T00:33:57.992Z,934.37
2023-01-19T00:34:07.985Z,934.37
2023-01-19T00:34:17.988Z,934.38
2023-01-19T00:34:27.985Z,934.39
2023-01-19T00:34:37.986Z,934.38
2023-01-19T00:34:47.993Z,934.40
2023-01-19T00:34:57.989Z,934.40
2023-01-19T00:35:08.726Z,934.40
2023-01-19T00:35:17.990Z,934.42
2023-01-19T00:35:27.989Z,934.41
2023-01-19T00:35:37.988Z,934.39
2023-01-19T00:35:47.999Z,934.41
2023-01-19T00:35:58.007Z,934.41
2023-01-19T00:36:07.997Z,934.42
2023-01-19T00:36:17.995Z,934.43
2023-01-19T00:36:27.993Z,934.43
2023-01-19T00:36:38.737Z,934.43
2023-01-19T00:36:47.999Z,934.43
2023-01-19T00:36:58.004Z,934.41
2023-01-19T00:37:07.997Z,934.42
2023-01-19T00:37:17.997Z,934.43
2023-01-19T00:37:28.000Z,934.44
2023-01-19T00:37:38.002Z,934.44
2023-01-19T00:37:48.049Z,934.44
2023-01-19T00:37:58.014Z,934.45
2023-01-19T00:38:08.002Z,934.43
2023-01-19T00:38:18.008Z,934.45
2023-01-19T00:38:28.005Z,934.46
2023-01-19T00:38:38.004Z,934.42
2023-01-19T00:38:48.010Z,934.44
2023-01-19T00:38:58.012Z,934.45
2023-01-19T00:39:08.009Z,934.45
2023-01-19T00:39:18.010Z,934.45
2023-01-19T00:39:28.009Z,934.46
2023-01-19T00:39:38.012Z,934.46
2023-01-19T00:39:48.011Z,934.46
2023-01-19T00:39:58.027Z,934.45
2023-01-19T00:40:08.016Z,934.45
2023-01-19T00:40:18.014Z,934.44
2023-01-19T00:40:28.015Z,934.40
2023-01-19T00:40:38.018Z,934.43
2023-01-19T00:40:48.018Z,934.43
2023-01-19T00:40:58.036Z,934.44
2023-01-19T00:41:08.016Z,934.43
2023-01-19T00:41:18.029Z,934.45
2023-01-19T00:41:28.020Z,934.44
2023-01-19T00:41:38.025Z,934.45
2023-01-19T00:41:48.029Z,934.40
2023-01-19T00:41:58.044Z,934.41
2023-01-19T00:42:08.042Z,934.43
2023-01-19T00:42:18.025Z,934.43
2023-01-19T00:42:28.026Z,934.41
2023-01-19T00:42:38.027Z,934.41
2023-01-19T00:42:48.034Z,934.39
2023-01-19T00:42:58.549Z,934.39
2023-01-19T00:43:08.030Z,934.39
2023-01-19T00:43:18.031Z,934.40
2023-01-19T00:43:28.030Z,934.39
2023-01-19T00:43:38.028Z,934.41
2023-01-19T00:43:48.033Z,934.41
2023-01-19T00:43:58.037Z,934.42
2023-01-19T00:44:08.057Z,934.43
2023-01-19T00:44:18.044Z,934.42
2023-01-19T00:44:28.034Z,934.42
2023-01-19T00:44:38.040Z,934.42
2023-01-19T00:44:48.046Z,934.43
2023-01-19T00:44:58.036Z,934.42
2023-01-19T00:45:08.041Z,934.43
2023-01-19T00:45:18.046Z,934.41
2023-01-19T00:45:28.092Z,934.41
2023-01-19T00:45:38.073Z,934.41
2023-01-19T00:45:48.095Z,934.40
2023-01-19T00:45:58.123Z,934.41
2023-01-19T00:46:08.137Z,934.39
2023-01-19T00:46:18.061Z,934.42
2023-01-19T00:46:28.046Z,934.42
2023-01-19T00:46:38.047Z,934.43
2023-01-19T00:46:48.050Z,934.41
2023-01-19T00:46:58.048Z,934.44
2023-01-19T00:47:08.045Z,934.42
2023-01-19T00:47:18.055Z,934.43
2023-01-19T00:47:28.046Z,934.43
2023-01-19T00:47:38.051Z,934.41
2023-01-19T00:47:48.049Z,934.44
2023-01-19T00:47:58.052Z,934.44
2023-01-19T00:48:08.055Z,934.43
2023-01-19T00:48:18.076Z,934.43
2023-01-19T00:48:28.053Z,934.43
2023-01-19T00:48:38.052Z,934.42
2023-01-19T00:48:48.060Z,934.42
2023-01-19T00:48:58.053Z,934.42
2023-01-19T00:49:08.064Z,934.43
2023-01-19T00:49:18.062Z,934.42
2023-01-19T00:49:28.057Z,934.42
2023-01-19T00:49:38.061Z,934.43
2023-01-19T00:49:48.061Z,934.42
2023-01-19T00:49:58.082Z,934.40
2023-01-19T00:50:08.068Z,934.42
2023-01-19T00:50:18.076Z,934.41
2023-01-19T00:50:28.063Z,934.42
2023-01-19T00:50:38.065Z,934.43
2023-01-19T00:50:48.722Z,934.42
2023-01-19T00:50:58.067Z,934.43
2023-01-19T00:51:08.070Z,934.42
2023-01-19T00:51:18.072Z,934.41
2023-01-19T00:51:28.743Z,934.42
2023-01-19T00:51:38.079Z,934.39
2023-01-19T00:51:48.074Z,934.38
2023-01-19T00:51:58.071Z,934.42
2023-01-19T00:52:08.069Z,934.37
2023-01-19T00:52:18.072Z,934.38
2023-01-19T00:52:28.113Z,934.38
2023-01-19T00:52:38.077Z,934.38
2023-01-19T00:52:48.076Z,934.41
2023-01-19T00:52:58.454Z,934.40
2023-01-19T00:53:08.085Z,934.39
2023-01-19T00:53:18.082Z,934.41
2023-01-19T00:53:28.086Z,934.38
2023-01-19T00:53:38.080Z,934.40
2023-01-19T00:53:48.078Z,934.40
2023-01-19T00:53:58.078Z,934.41
2023-01-19T00:54:08.080Z,934.42
2023-01-19T00:54:18.078Z,934.43
2023-01-19T00:54:28.082Z,934.42
2023-01-19T00:54:38.090Z,934.42
2023-01-19T00:54:48.093Z,934.41
2023-01-19T00:54:58.083Z,934.42
2023-01-19T00:55:08.087Z,934.43
2023-01-19T00:55:18.085Z,934.42
2023-01-19T00:55:28.085Z,934.43
2023-01-19T00:55:38.090Z,934.43
2023-01-19T00:55:48.092Z,934.42
2023-01-19T00:55:58.096Z,934.41
2023-01-19T00:56:08.089Z,934.41
2023-01-19T00:56:18.087Z,934.41
2023-01-19T00:56:28.091Z,934.40
2023-01-19T00:56:38.094Z,934.41
2023-01-19T00:56:48.089Z,934.40
2023-01-19T00:56:58.101Z,934.39
2023-01-19T00:57:08.093Z,934.39
2023-01-19T00:57:18.092Z,934.40
2023-01-19T00:57:28.091Z,934.39
2023-01-19T00:57:38.101Z,934.39
2023-01-19T00:57:48.095Z,934.38
2023-01-19T00:57:58.133Z,934.38
2023-01-19T00:58:08.097Z,934.36
2023-01-19T00:58:18.099Z,934.37
2023-01-19T00:58:28.110Z,934.38
2023-01-19T00:58:38.106Z,934.37
2023-01-19T00:58:48.101Z,934.36
2023-01-19T00:58:58.107Z,934.39
2023-01-19T00:59:08.104Z,934.36
2023-01-19T00:59:18.105Z,934.38
2023-01-19T00:59:28.102Z,934.37
2023-01-19T00:59:38.107Z,934.37
2023-01-19T00:59:48.108Z,934.38
2023-01-19T00:59:58.121Z,934.40
2023-01-19T01:00:08.117Z,934.39
2023-01-19T01:00:18.120Z,934.41
2023-01-19T01:00:28.113Z,934.41
2023-01-19T01:00:38.109Z,934.41
2023-01-19T01:00:48.242Z,934.40
2023-01-19T01:00:58.209Z,934.41
2023-01-19T01:01:08.225Z,934.40
2023-01-19T01:01:18.170Z,934.39
2023-01-19T01:01:45.924Z,934.40
2023-01-19T01:01:46.212Z,934.38
2023-01-19T01:01:49.231Z,934.40
2023-01-19T01:01:58.444Z,934.40
2023-01-19T01:02:08.301Z,934.41
2023-01-19T01:02:18.288Z,934.42
2023-01-19T01:02:28.333Z,934.42
2023-01-19T01:02:38.219Z,934.38
2023-01-19T01:02:48.198Z,934.40
2023-01-19T01:02:58.777Z,934.41
2023-01-19T01:03:08.257Z,934.39
2023-01-19T01:03:18.207Z,934.39
2023-01-19T01:03:28.364Z,934.37
2023-01-19T01:03:38.125Z,934.40
2023-01-19T01:03:48.125Z,934.37
2023-01-19T01:03:58.142Z,934.38
2023-01-19T01:04:08.128Z,934.39
2023-01-19T01:04:18.133Z,934.35
2023-01-19T01:04:28.130Z,934.35
2023-01-19T01:04:38.138Z,934.34
2023-01-19T01:04:48.131Z,934.35
2023-01-19T01:04:58.139Z,934.38
2023-01-19T01:05:08.131Z,934.38
2023-01-19T01:05:18.135Z,934.35
2023-01-19T01:05:28.138Z,934.36
2023-01-19T01:05:38.135Z,934.38
2023-01-19T01:05:48.135Z,934.36
2023-01-19T01:05:58.146Z,934.36
2023-01-19T01:06:08.137Z,934.37
2023-01-19T01:06:18.137Z,934.36
2023-01-19T01:06:28.133Z,934.38
2023-01-19T01:06:38.138Z,934.38
2023-01-19T01:06:48.138Z,934.38
2023-01-19T01:06:58.143Z,934.37
2023-01-19T01:07:08.163Z,934.35
2023-01-19T01:07:18.139Z,934.36
2023-01-19T01:07:28.139Z,934.37
2023-01-19T01:07:38.142Z,934.37
2023-01-19T01:07:48.142Z,934.37
2023-01-19T01:07:58.156Z,934.37
2023-01-19T01:08:08.151Z,934.37
2023-01-19T01:08:18.168Z,934.38
2023-01-19T01:08:28.142Z,934.38
2023-01-19T01:08:38.153Z,934.38
2023-01-19T01:08:48.146Z,934.39
2023-01-19T01:08:58.153Z,934.38
2023-01-19T01:09:08.148Z,934.34
2023-01-19T01:09:18.155Z,934.36
2023-01-19T01:09:28.149Z,934.36
2023-01-19T01:09:38.149Z,934.36
2023-01-19T01:09:48.149Z,934.36
2023-01-19T01:09:58.151Z,934.36
2023-01-19T01:10:08.162Z,934.37
2023-01-19T01:10:18.171Z,934.37
2023-01-19T01:10:28.186Z,934.34
2023-01-19T01:10:38.153Z,934.34
2023-01-19T01:10:48.157Z,934.34
2023-01-19T01:10:58.169Z,934.35
2023-01-19T01:11:08.160Z,934.36
2023-01-19T01:11:18.167Z,934.36
2023-01-19T01:11:28.159Z,934.36
2023-01-19T01:11:38.741Z,934.36
2023-01-19T01:11:48.741Z,934.34
2023-01-19T01:11:58.168Z,934.37
2023-01-19T01:12:08.162Z,934.37
2023-01-19T01:12:18.176Z,934.34
2023-01-19T01:12:28.166Z,934.36
2023-01-19T01:12:38.183Z,934.37
2023-01-19T01:12:57.481Z,934.36
2023-01-19T01:13:19.885Z,934.35
2023-01-19T01:13:19.931Z,934.34
2023-01-19T01:13:20.489Z,934.34
2023-01-19T01:13:28.464Z,934.35
2023-01-19T01:13:38.171Z,934.37
2023-01-19T01:13:49.759Z,934.36
2023-01-19T01:13:58.175Z,934.35
2023-01-19T01:14:08.171Z,934.35
2023-01-19T01:14:18.206Z,934.34
2023-01-19T01:14:28.175Z,934.36
2023-01-19T01:14:38.172Z,934.34
2023-01-19T01:14:48.175Z,934.33
2023-01-19T01:14:58.176Z,934.34
2023-01-19T01:15:08.180Z,934.33
2023-01-19T01:15:18.269Z,934.35
2023-01-19T01:15:28.266Z,934.33
2023-01-19T01:15:38.179Z,934.35
2023-01-19T01:15:48.180Z,934.33
2023-01-19T01:15:58.190Z,934.33
2023-01-19T01:16:08.180Z,934.34
2023-01-19T01:16:18.249Z,934.37
2023-01-19T01:16:28.200Z,934.33
2023-01-19T01:16:38.275Z,934.35
2023-01-19T01:16:48.246Z,934.35
2023-01-19T01:16:58.185Z,934.36
2023-01-19T01:17:08.185Z,934.36
2023-01-19T01:17:18.191Z,934.36
2023-01-19T01:17:28.186Z,934.37
2023-01-19T01:17:38.205Z,934.36
2023-01-19T01:17:48.194Z,934.36
2023-01-19T01:17:58.220Z,934.35
2023-01-19T01:18:08.191Z,934.34
2023-01-19T01:18:18.211Z,934.36
2023-01-19T01:18:28.191Z,934.36
2023-01-19T01:18:38.206Z,934.37
2023-01-19T01:18:48.201Z,934.38
2023-01-19T01:18:58.218Z,934.37
2023-01-19T01:19:08.196Z,934.38
2023-01-19T01:19:18.199Z,934.40
2023-01-19T01:19:28.216Z,934.41
2023-01-19T01:19:38.202Z,934.41
2023-01-19T01:19:48.203Z,934.41
2023-01-19T01:19:58.204Z,934.41
2023-01-19T01:20:08.212Z,934.44
2023-01-19T01:20:18.208Z,934.44
2023-01-19T01:20:28.313Z,934.45
2023-01-19T01:20:38.217Z,934.43
2023-01-19T01:20:48.216Z,934.46
2023-01-19T01:20:58.222Z,934.45
2023-01-19T01:21:08.209Z,934.45
2023-01-19T01:21:18.210Z,934.44
2023-01-19T01:21:28.216Z,934.43
2023-01-19T01:21:38.220Z,934.42
2023-01-19T01:21:48.210Z,934.43
2023-01-19T01:21:58.269Z,934.44
2023-01-19T01:22:08.214Z,934.45
2023-01-19T01:22:18.228Z,934.44
2023-01-19T01:22:28.227Z,934.43
2023-01-19T01:22:38.217Z,934.44
2023-01-19T01:22:48.221Z,934.44
2023-01-19T01:22:58.711Z,934.44
2023-01-19T01:23:08.221Z,934.45
2023-01-19T01:23:18.219Z,934.44
2023-01-19T01:23:28.743Z,934.44
2023-01-19T01:23:38.220Z,934.45
2023-01-19T01:23:48.225Z,934.46
2023-01-19T01:23:58.221Z,934.45
2023-01-19T01:24:08.224Z,934.46
2023-01-19T01:24:18.223Z,934.45
2023-01-19T01:24:28.240Z,934.45
2023-01-19T01:24:38.253Z,934.42
2023-01-19T01:24:48.225Z,934.42
2023-01-19T01:24:58.236Z,934.45
2023-01-19T01:25:08.233Z,934.44
2023-01-19T01:25:18.235Z,934.44
2023-01-19T01:25:28.235Z,934.45
2023-01-19T01:25:38.235Z,934.43
2023-01-19T01:25:48.234Z,934.43
2023-01-19T01:25:58.235Z,934.42
2023-01-19T01:26:08.248Z,934.42
2023-01-19T01:26:18.237Z,934.42
2023-01-19T01:26:28.249Z,934.41
2023-01-19T01:26:38.236Z,934.42
2023-01-19T01:26:48.239Z,934.42
2023-01-19T01:26:58.235Z,934.43
2023-01-19T01:27:08.239Z,934.41
2023-01-19T01:27:18.237Z,934.43
2023-01-19T01:27:28.253Z,934.43
2023-01-19T01:27:38.247Z,934.44
2023-01-19T01:27:48.240Z,934.43
2023-01-19T01:27:58.251Z,934.42
2023-01-19T01:28:08.252Z,934.44
2023-01-19T01:28:18.244Z,934.42
2023-01-19T01:28:28.260Z,934.44
2023-01-19T01:28:38.246Z,934.42
2023-01-19T01:28:48.251Z,934.44
2023-01-19T01:28:59.238Z,934.45
2023-01-19T01:29:08.249Z,934.45
2023-01-19T01:29:18.251Z,934.43
2023-01-19T01:29:28.261Z,934.44
2023-01-19T01:29:38.252Z,934.46
2023-01-19T01:29:48.250Z,934.44
2023-01-19T01:29:58.267Z,934.45
2023-01-19T01:30:08.257Z,934.40
2023-01-19T01:30:18.271Z,934.40
2023-01-19T01:30:28.267Z,934.41
2023-01-19T01:30:38.268Z,934.41
2023-01-19T01:30:48.272Z,934.43
2023-01-19T01:30:58.259Z,934.43
2023-01-19T01:31:08.260Z,934.45
2023-01-19T01:31:18.309Z,934.43
2023-01-19T01:31:28.284Z,934.44
2023-01-19T01:31:38.364Z,934.42
2023-01-19T01:31:48.308Z,934.44
2023-01-19T01:31:58.318Z,934.44
2023-01-19T01:32:08.266Z,934.42
2023-01-19T01:32:18.270Z,934.41
2023-01-19T01:32:28.272Z,934.42
2023-01-19T01:32:38.281Z,934.41
2023-01-19T01:32:48.272Z,934.42
2023-01-19T01:32:58.653Z,934.42
2023-01-19T01:33:08.291Z,934.39
2023-01-19T01:33:40.472Z,934.41
2023-01-19T01:33:40.925Z,934.42
2023-01-19T01:33:41.189Z,934.41
2023-01-19T01:33:48.278Z,934.40
2023-01-19T01:33:58.276Z,934.39
2023-01-19T01:34:08.288Z,934.38
2023-01-19T01:34:18.279Z,934.43
2023-01-19T01:34:28.280Z,934.39
2023-01-19T01:34:38.291Z,934.40
2023-01-19T01:34:48.279Z,934.40
2023-01-19T01:34:58.280Z,934.40
2023-01-19T01:35:08.286Z,934.42
2023-01-19T01:35:18.288Z,934.43
2023-01-19T01:35:28.285Z,934.42
2023-01-19T01:35:38.293Z,934.40
2023-01-19T01:35:48.292Z,934.41
2023-01-19T01:35:58.291Z,934.34
2023-01-19T01:36:08.290Z,934.37
2023-01-19T01:36:18.287Z,934.41
2023-01-19T01:36:28.292Z,934.43
2023-01-19T01:36:38.295Z,934.41
2023-01-19T01:36:48.288Z,934.44
2023-01-19T01:36:58.293Z,934.42
2023-01-19T01:37:08.297Z,934.42
2023-01-19T01:37:18.329Z,934.44
2023-01-19T01:37:28.297Z,934.44
2023-01-19T01:37:38.306Z,934.42
2023-01-19T01:37:48.297Z,934.44
2023-01-19T01:37:58.295Z,934.45
2023-01-19T01:38:08.297Z,934.46
2023-01-19T01:38:18.296Z,934.50
2023-01-19T01:38:28.297Z,934.46
2023-01-19T01:38:38.303Z,934.47
2023-01-19T01:38:48.300Z,934.47
2023-01-19T01:38:58.300Z,934.49
2023-01-19T01:39:08.302Z,934.48
2023-01-19T01:39:18.311Z,934.48
2023-01-19T01:39:28.301Z,934.48
2023-01-19T01:39:38.304Z,934.48
2023-01-19T01:39:48.304Z,934.50
2023-01-19T01:39:58.305Z,934.49
2023-01-19T01:40:08.331Z,934.47
2023-01-19T01:40:18.310Z,934.48
2023-01-19T01:40:28.306Z,934.50
2023-01-19T01:40:38.322Z,934.49
2023-01-19T01:40:48.316Z,934.47
2023-01-19T01:40:58.309Z,934.46
2023-01-19T01:41:08.312Z,934.47
2023-01-19T01:41:18.803Z,934.46
2023-01-19T01:41:28.319Z,934.45
2023-01-19T01:41:38.326Z,934.46
2023-01-19T01:41:48.315Z,934.47
2023-01-19T01:41:58.317Z,934.42
2023-01-19T01:42:08.317Z,934.46
2023-01-19T01:42:18.325Z,934.45
2023-01-19T01:42:28.319Z,934.46
2023-01-19T01:42:38.327Z,934.45
2023-01-19T01:42:48.322Z,934.46
2023-01-19T01:42:58.621Z,934.46
2023-01-19T01:43:08.333Z,934.45
2023-01-19T01:43:18.355Z,934.41
2023-01-19T01:43:28.325Z,934.44
2023-01-19T01:43:38.330Z,934.45
2023-01-19T01:43:48.335Z,934.43
2023-01-19T01:43:58.481Z,934.40
2023-01-19T01:44:08.322Z,934.45
2023-01-19T01:44:18.342Z,934.43
2023-01-19T01:44:28.327Z,934.44
2023-01-19T01:44:38.336Z,934.43
2023-01-19T01:44:48.329Z,934.42
2023-01-19T01:44:58.332Z,934.43
2023-01-19T01:45:08.327Z,934.44
2023-01-19T01:45:18.360Z,934.44
2023-01-19T01:45:28.332Z,934.41
2023-01-19T01:45:38.441Z,934.44
2023-01-19T01:45:48.377Z,934.44
2023-01-19T01:45:58.349Z,934.45
2023-01-19T01:46:08.381Z,934.44
2023-01-19T01:46:18.411Z,934.44
2023-01-19T01:46:28.334Z,934.45
2023-01-19T01:46:38.348Z,934.45
2023-01-19T01:46:48.338Z,934.46
2023-01-19T01:46:58.336Z,934.46
2023-01-19T01:47:08.341Z,934.47
2023-01-19T01:47:18.371Z,934.47
2023-01-19T01:47:28.341Z,934.46
2023-01-19T01:47:38.355Z,934.47
2023-01-19T01:47:48.347Z,934.47
2023-01-19T01:47:58.355Z,934.47
2023-01-19T01:48:08.356Z,934.45
2023-01-19T01:48:18.382Z,934.46
2023-01-19T01:48:28.347Z,934.46
2023-01-19T01:48:38.361Z,934.45
2023-01-19T01:48:48.349Z,934.45
2023-01-19T01:48:58.349Z,934.46
2023-01-19T01:49:08.350Z,934.46
2023-01-19T01:49:18.349Z,934.48
2023-01-19T01:49:28.383Z,934.47
2023-01-19T01:49:38.360Z,934.46
2023-01-19T01:49:48.368Z,934.47
2023-01-19T01:49:58.358Z,934.47
2023-01-19T01:50:08.357Z,934.47
2023-01-19T01:50:18.357Z,934.47
2023-01-19T01:50:28.362Z,934.47
2023-01-19T01:50:38.390Z,934.45
2023-01-19T01:50:48.357Z,934.47
2023-01-19T01:50:59.237Z,934.48
2023-01-19T01:51:08.361Z,934.48
2023-01-19T01:51:18.360Z,934.47
2023-01-19T01:51:28.364Z,934.46
2023-01-19T01:51:38.371Z,934.49
2023-01-19T01:51:48.440Z,934.48
2023-01-19T01:51:58.365Z,934.49
2023-01-19T01:52:08.373Z,934.50
2023-01-19T01:52:18.368Z,934.47
2023-01-19T01:52:28.369Z,934.51
2023-01-19T01:52:38.386Z,934.49
2023-01-19T01:53:06.623Z,934.48
2023-01-19T01:53:07.386Z,934.48
2023-01-19T01:53:09.702Z,934.50
2023-01-19T01:53:18.371Z,934.50
2023-01-19T01:53:28.382Z,934.46
2023-01-19T01:53:38.390Z,934.51
2023-01-19T01:53:48.374Z,934.51
2023-01-19T01:53:58.389Z,934.53
2023-01-19T01:54:08.377Z,934.52
2023-01-19T01:54:18.378Z,934.53
2023-01-19T01:54:28.395Z,934.57
2023-01-19T01:54:38.394Z,934.55
2023-01-19T01:54:48.387Z,934.55
2023-01-19T01:54:58.382Z,934.55
2023-01-19T01:55:08.390Z,934.51
2023-01-19T01:55:18.406Z,934.46
2023-01-19T01:55:28.388Z,934.53
2023-01-19T01:55:38.393Z,934.53
2023-01-19T01:55:48.390Z,934.55
2023-01-19T01:55:58.387Z,934.53
2023-01-19T01:56:08.388Z,934.54
2023-01-19T01:56:18.404Z,934.52
2023-01-19T01:56:28.401Z,934.54
2023-01-19T01:56:38.389Z,934.52
2023-01-19T01:56:48.397Z,934.53
2023-01-19T01:56:58.389Z,934.53
2023-01-19T01:57:08.412Z,934.51
2023-01-19T01:57:18.391Z,934.52
2023-01-19T01:57:28.400Z,934.53
2023-01-19T01:57:38.401Z,934.53
2023-01-19T01:57:48.395Z,934.54
2023-01-19T01:57:58.400Z,934.53
2023-01-19T01:58:08.394Z,934.53
2023-01-19T01:58:18.398Z,934.51
2023-01-19T01:58:28.404Z,934.56
2023-01-19T01:58:38.434Z,934.53
2023-01-19T01:58:48.400Z,934.53
2023-01-19T01:58:58.400Z,934.53
2023-01-19T01:59:08.407Z,934.55
2023-01-19T01:59:18.419Z,934.55
2023-01-19T01:59:28.444Z,934.53
2023-01-19T01:59:38.407Z,934.54
2023-01-19T01:59:48.413Z,934.54
2023-01-19T01:59:58.407Z,934.52
2023-01-19T02:00:08.406Z,934.50
2023-01-19T02:00:18.422Z,934.55
2023-01-19T02:00:28.418Z,934.52
2023-01-19T02:00:38.415Z,934.52
2023-01-19T02:00:48.505Z,934.48
2023-01-19T02:00:58.457Z,934.46
2023-01-19T02:01:08.620Z,934.46
2023-01-19T02:01:18.547Z,934.50
2023-01-19T02:01:28.979Z,934.50
2023-01-19T02:01:38.528Z,934.50
2023-01-19T02:01:48.476Z,934.53
2023-01-19T02:01:58.534Z,934.54
2023-01-19T02:02:08.433Z,934.53
2023-01-19T02:02:19.094Z,934.51
2023-01-19T02:02:28.423Z,934.49
2023-01-19T02:02:38.424Z,934.47
2023-01-19T02:02:48.425Z,934.53
2023-01-19T02:02:58.939Z,934.48
2023-01-19T02:03:08.481Z,934.51
2023-01-19T02:03:18.481Z,934.51
2023-01-19T02:03:28.455Z,934.49
2023-01-19T02:03:38.489Z,934.54
2023-01-19T02:03:48.431Z,934.53
2023-01-19T02:03:58.438Z,934.55
2023-01-19T02:04:08.444Z,934.56
2023-01-19T02:04:18.441Z,934.54
2023-01-19T02:04:28.442Z,934.53
2023-01-19T02:04:38.435Z,934.52
2023-01-19T02:04:48.437Z,934.53